sensor_id;sensor_type;location;lat;lon;timestamp;pressure;altitude;pressure_sealevel;temperature;humidity
28310;BME280;15571;50.974;13.936;2023-03-25T00:02:55;99103.88;;;9.76;100.00
28310;BME280;15571;50.974;13.936;2023-03-25T00:06:01;99101.31;;;9.73;100.00
28310;BME280;15571;50.974;13.936;2023-03-25T00:09:11;99096.13;;;9.72;100.00
28310;BME280;15571;50.974;13.936;2023-03-25T00:12:20;99095.25;;;9.71;100.00
28310;BME280;15571;50.974;13.936;2023-03-25T00:15:25;99085.63;;;9.73;100.00
28310;BME280;15571;50.974;13.936;2023-03-25T00:18:30;99082.97;;;9.76;100.00
28310;BME280;15571;50.974;13.936;2023-03-25T00:21:35;99077.63;;;9.81;100.00
28310;BME280;15571;50.974;13.936;2023-03-25T00:24:43;99079.31;;;9.84;100.00
28310;BME280;15571;50.974;13.936;2023-03-25T00:27:47;99080.09;;;9.87;100.00
28310;BME280;15571;50.974;13.936;2023-03-25T00:30:50;99069.66;;;9.89;100.00
28310;BME280;15571;50.974;13.936;2023-03-25T00:33:57;99072.16;;;9.92;100.00
28310;BME280;15571;50.974;13.936;2023-03-25T00:37:02;99062.53;;;9.94;100.00
28310;BME280;15571;50.974;13.936;2023-03-25T00:40:04;99064.16;;;10.00;100.00
28310;BME280;15571;50.974;13.936;2023-03-25T00:43:09;99058.00;;;10.04;100.00
28310;BME280;15571;50.974;13.936;2023-03-25T00:46:13;99053.56;;;10.07;100.00
28310;BME280;15571;50.974;13.936;2023-03-25T00:49:24;99058.75;;;10.09;100.00
28310;BME280;15571;50.974;13.936;2023-03-25T00:52:34;99063.03;;;10.11;100.00
28310;BME280;15571;50.974;13.936;2023-03-25T00:55:40;99058.69;;;10.12;100.00
28310;BME280;15571;50.974;13.936;2023-03-25T00:58:44;99056.03;;;10.13;100.00
28310;BME280;15571;50.974;13.936;2023-03-25T01:01:48;99063.81;;;10.17;100.00
28310;BME280;15571;50.974;13.936;2023-03-25T01:04:59;99061.09;;;10.20;100.00
28310;BME280;15571;50.974;13.936;2023-03-25T01:08:02;99069.78;;;10.22;100.00
28310;BME280;15571;50.974;13.936;2023-03-25T01:11:15;99064.53;;;10.23;100.00
28310;BME280;15571;50.974;13.936;2023-03-25T01:14:24;99057.47;;;10.27;100.00
28310;BME280;15571;50.974;13.936;2023-03-25T01:17:28;99067.94;;;10.27;100.00
28310;BME280;15571;50.974;13.936;2023-03-25T01:20:31;99058.28;;;10.29;100.00
28310;BME280;15571;50.974;13.936;2023-03-25T01:23:36;99054.81;;;10.28;100.00
28310;BME280;15571;50.974;13.936;2023-03-25T01:26:39;99053.09;;;10.27;100.00
28310;BME280;15571;50.974;13.936;2023-03-25T01:29:46;99053.09;;;10.27;100.00
28310;BME280;15571;50.974;13.936;2023-03-25T01:32:57;99052.25;;;10.27;100.00
28310;BME280;15571;50.974;13.936;2023-03-25T01:35:59;99043.53;;;10.26;100.00
28310;BME280;15571;50.974;13.936;2023-03-25T01:39:02;99038.34;;;10.25;100.00
28310;BME280;15571;50.974;13.936;2023-03-25T01:42:05;99034.00;;;10.24;100.00
28310;BME280;15571;50.974;13.936;2023-03-25T01:45:12;99026.16;;;10.24;100.00
28310;BME280;15571;50.974;13.936;2023-03-25T01:48:18;99020.97;;;10.21;100.00
28310;BME280;15571;50.974;13.936;2023-03-25T01:51:25;99027.09;;;10.21;100.00
28310;BME280;15571;50.974;13.936;2023-03-25T01:54:28;99020.97;;;10.21;100.00
28310;BME280;15571;50.974;13.936;2023-03-25T01:57:32;99019.19;;;10.23;100.00
28310;BME280;15571;50.974;13.936;2023-03-25T02:00:37;99002.59;;;10.24;100.00
28310;BME280;15571;50.974;13.936;2023-03-25T02:03:40;99005.16;;;10.27;100.00
28310;BME280;15571;50.974;13.936;2023-03-25T02:06:49;98996.41;;;10.28;100.00
28310;BME280;15571;50.974;13.936;2023-03-25T02:09:53;98987.66;;;10.29;100.00
28310;BME280;15571;50.974;13.936;2023-03-25T02:12:56;98993.75;;;10.30;100.00
28310;BME280;15571;50.974;13.936;2023-03-25T02:16:09;98998.13;;;10.29;100.00
28310;BME280;15571;50.974;13.936;2023-03-25T02:19:26;98996.41;;;10.28;100.00
28310;BME280;15571;50.974;13.936;2023-03-25T02:22:41;98994.66;;;10.28;100.00
28310;BME280;15571;50.974;13.936;2023-03-25T02:26:02;98990.25;;;10.29;100.00
28310;BME280;15571;50.974;13.936;2023-03-25T02:29:10;99001.56;;;10.31;100.00
28310;BME280;15571;50.974;13.936;2023-03-25T02:32:35;99002.44;;;10.32;100.00
28310;BME280;15571;50.974;13.936;2023-03-25T02:35:45;99002.44;;;10.32;100.00
28310;BME280;15571;50.974;13.936;2023-03-25T02:38:55;98999.78;;;10.33;100.00
28310;BME280;15571;50.974;13.936;2023-03-25T02:42:04;98993.69;;;10.33;100.00
28310;BME280;15571;50.974;13.936;2023-03-25T02:45:11;98989.31;;;10.33;100.00
28310;BME280;15571;50.974;13.936;2023-03-25T02:48:17;98985.88;;;10.31;100.00
28310;BME280;15571;50.974;13.936;2023-03-25T02:51:21;98984.97;;;10.32;100.00
28310;BME280;15571;50.974;13.936;2023-03-25T02:54:29;98980.63;;;10.31;100.00
28310;BME280;15571;50.974;13.936;2023-03-25T02:57:37;98982.34;;;10.32;100.00
28310;BME280;15571;50.974;13.936;2023-03-25T03:00:43;98971.91;;;10.32;100.00
28310;BME280;15571;50.974;13.936;2023-03-25T03:03:46;98973.63;;;10.33;100.00
28310;BME280;15571;50.974;13.936;2023-03-25T03:06:55;98976.19;;;10.35;100.00
28310;BME280;15571;50.974;13.936;2023-03-25T03:10:08;98970.94;;;10.35;100.00
28310;BME280;15571;50.974;13.936;2023-03-25T03:13:20;98972.66;;;10.36;100.00
28310;BME280;15571;50.974;13.936;2023-03-25T03:16:27;98976.16;;;10.36;100.00
28310;BME280;15571;50.974;13.936;2023-03-25T03:19:35;98978.78;;;10.36;100.00
28310;BME280;15571;50.974;13.936;2023-03-25T03:22:45;98974.41;;;10.37;100.00
28310;BME280;15571;50.974;13.936;2023-03-25T03:26:00;98983.16;;;10.37;100.00
28310;BME280;15571;50.974;13.936;2023-03-25T03:29:08;98984.00;;;10.36;100.00
28310;BME280;15571;50.974;13.936;2023-03-25T03:32:16;98989.31;;;10.33;100.00
28310;BME280;15571;50.974;13.936;2023-03-25T03:35:21;98990.19;;;10.32;100.00
28310;BME280;15571;50.974;13.936;2023-03-25T03:38:26;98983.28;;;10.30;100.00
28310;BME280;15571;50.974;13.936;2023-03-25T03:41:30;98985.97;;;10.28;100.00
28310;BME280;15571;50.974;13.936;2023-03-25T03:44:36;98972.06;;;10.24;100.00
28310;BME280;15571;50.974;13.936;2023-03-25T03:47:44;98972.06;;;10.24;100.00
28310;BME280;15571;50.974;13.936;2023-03-25T03:50:50;98974.78;;;10.21;100.00
28310;BME280;15571;50.974;13.936;2023-03-25T03:53:58;98974.78;;;10.21;100.00
28310;BME280;15571;50.974;13.936;2023-03-25T03:57:06;98979.13;;;10.21;100.00
28310;BME280;15571;50.974;13.936;2023-03-25T04:00:10;98987.91;;;10.18;100.00
28310;BME280;15571;50.974;13.936;2023-03-25T04:03:17;98987.03;;;10.19;100.00
28310;BME280;15571;50.974;13.936;2023-03-25T04:06:25;98994.03;;;10.17;100.00
28310;BME280;15571;50.974;13.936;2023-03-25T04:09:31;98989.69;;;10.18;100.00
28310;BME280;15571;50.974;13.936;2023-03-25T04:12:44;98998.44;;;10.17;100.00
28310;BME280;15571;50.974;13.936;2023-03-25T04:15:52;99005.38;;;10.18;100.00
28310;BME280;15571;50.974;13.936;2023-03-25T04:18:56;99010.63;;;10.18;100.00
28310;BME280;15571;50.974;13.936;2023-03-25T04:22:00;99015.84;;;10.18;100.00
28310;BME280;15571;50.974;13.936;2023-03-25T04:25:03;99017.53;;;10.20;100.00
28310;BME280;15571;50.974;13.936;2023-03-25T04:28:17;99010.53;;;10.21;100.00
28310;BME280;15571;50.974;13.936;2023-03-25T04:31:20;99005.28;;;10.21;100.00
28310;BME280;15571;50.974;13.936;2023-03-25T04:34:25;99005.28;;;10.21;100.00
28310;BME280;15571;50.974;13.936;2023-03-25T04:37:28;99003.56;;;10.20;100.00
28310;BME280;15571;50.974;13.936;2023-03-25T04:40:33;99005.28;;;10.21;100.00
28310;BME280;15571;50.974;13.936;2023-03-25T04:43:45;99006.13;;;10.23;100.00
28310;BME280;15571;50.974;13.936;2023-03-25T04:46:51;99006.06;;;10.24;100.00
28310;BME280;15571;50.974;13.936;2023-03-25T04:49:56;99013.91;;;10.26;100.00
28310;BME280;15571;50.974;13.936;2023-03-25T04:52:58;99013.84;;;10.27;100.00
28310;BME280;15571;50.974;13.936;2023-03-25T04:56:03;99010.28;;;10.30;100.00
28310;BME280;15571;50.974;13.936;2023-03-25T04:59:09;99011.13;;;10.32;100.00
28310;BME280;15571;50.974;13.936;2023-03-25T05:02:16;99012.81;;;10.35;100.00
28310;BME280;15571;50.974;13.936;2023-03-25T05:05:20;99013.66;;;10.38;100.00
28310;BME280;15571;50.974;13.936;2023-03-25T05:08:24;99002.31;;;10.38;100.00
28310;BME280;15571;50.974;13.936;2023-03-25T05:11:29;99003.09;;;10.41;100.00
28310;BME280;15571;50.974;13.936;2023-03-25T05:14:33;99003.09;;;10.41;100.00
28310;BME280;15571;50.974;13.936;2023-03-25T05:17:39;99006.53;;;10.43;100.00
28310;BME280;15571;50.974;13.936;2023-03-25T05:20:43;99019.56;;;10.47;100.00
28310;BME280;15571;50.974;13.936;2023-03-25T05:23:47;99014.28;;;10.48;100.00
28310;BME280;15571;50.974;13.936;2023-03-25T05:26:51;99016.88;;;10.48;100.00
28310;BME280;15571;50.974;13.936;2023-03-25T05:29:58;99017.72;;;10.50;100.00
28310;BME280;15571;50.974;13.936;2023-03-25T05:33:02;99024.63;;;10.53;100.00
28310;BME280;15571;50.974;13.936;2023-03-25T05:36:06;99023.78;;;10.52;100.00
28310;BME280;15571;50.974;13.936;2023-03-25T05:39:14;99019.34;;;10.54;100.00
28310;BME280;15571;50.974;13.936;2023-03-25T05:42:23;99026.34;;;10.54;100.00
28310;BME280;15571;50.974;13.936;2023-03-25T05:45:28;99025.44;;;10.55;100.00
28310;BME280;15571;50.974;13.936;2023-03-25T05:48:44;99031.53;;;10.55;100.00
28310;BME280;15571;50.974;13.936;2023-03-25T05:51:49;99034.13;;;10.57;100.00
28310;BME280;15571;50.974;13.936;2023-03-25T05:54:56;99030.69;;;10.55;100.00
28310;BME280;15571;50.974;13.936;2023-03-25T05:58:02;99030.63;;;10.58;100.00
28310;BME280;15571;50.974;13.936;2023-03-25T06:01:08;99041.09;;;10.58;100.00
28310;BME280;15571;50.974;13.936;2023-03-25T06:04:17;99052.44;;;10.57;100.00
28310;BME280;15571;50.974;13.936;2023-03-25T06:07:27;99046.31;;;10.58;100.00
28310;BME280;15571;50.974;13.936;2023-03-25T06:10:33;99043.59;;;10.63;100.00
28310;BME280;15571;50.974;13.936;2023-03-25T06:13:39;99043.53;;;10.64;100.00
28310;BME280;15571;50.974;13.936;2023-03-25T06:16:48;99047.81;;;10.67;100.00
28310;BME280;15571;50.974;13.936;2023-03-25T06:19:50;99045.16;;;10.68;100.00
28310;BME280;15571;50.974;13.936;2023-03-25T06:22:53;99052.94;;;10.71;100.00
28310;BME280;15571;50.974;13.936;2023-03-25T06:25:55;99047.66;;;10.74;100.00
28310;BME280;15571;50.974;13.936;2023-03-25T06:28:59;99051.09;;;10.77;100.00
28310;BME280;15571;50.974;13.936;2023-03-25T06:32:03;99053.72;;;10.77;100.00
28310;BME280;15571;50.974;13.936;2023-03-25T06:35:06;99054.50;;;10.79;100.00
28310;BME280;15571;50.974;13.936;2023-03-25T06:38:16;99050.16;;;10.78;100.00
28310;BME280;15571;50.974;13.936;2023-03-25T06:41:36;99061.56;;;10.75;100.00
28310;BME280;15571;50.974;13.936;2023-03-25T06:44:57;99059.84;;;10.74;100.00
28310;BME280;15571;50.974;13.936;2023-03-25T06:48:19;99063.41;;;10.71;100.00
28310;BME280;15571;50.974;13.936;2023-03-25T06:51:24;99063.41;;;10.71;100.00
28310;BME280;15571;50.974;13.936;2023-03-25T06:54:38;99058.25;;;10.68;100.00
28310;BME280;15571;50.974;13.936;2023-03-25T06:57:41;99065.31;;;10.66;100.00
28310;BME280;15571;50.974;13.936;2023-03-25T07:00:45;99057.41;;;10.68;100.00
28310;BME280;15571;50.974;13.936;2023-03-25T07:03:50;99044.38;;;10.66;100.00
28310;BME280;15571;50.974;13.936;2023-03-25T07:06:53;99057.41;;;10.68;100.00
28310;BME280;15571;50.974;13.936;2023-03-25T07:09:56;99060.97;;;10.65;100.00
28310;BME280;15571;50.974;13.936;2023-03-25T07:12:59;99061.78;;;10.67;100.00
28310;BME280;15571;50.974;13.936;2023-03-25T07:16:05;99059.97;;;10.69;100.00
28310;BME280;15571;50.974;13.936;2023-03-25T07:19:08;99049.44;;;10.72;100.00
28310;BME280;15571;50.974;13.936;2023-03-25T07:22:12;99049.44;;;10.72;100.00
28310;BME280;15571;50.974;13.936;2023-03-25T07:25:19;99053.66;;;10.78;100.00
28310;BME280;15571;50.974;13.936;2023-03-25T07:28:23;99050.09;;;10.82;100.00
28310;BME280;15571;50.974;13.936;2023-03-25T07:31:27;99043.91;;;10.85;100.00
28310;BME280;15571;50.974;13.936;2023-03-25T07:34:32;99038.56;;;10.88;100.00
28310;BME280;15571;50.974;13.936;2023-03-25T07:37:37;99049.78;;;10.93;100.00
28310;BME280;15571;50.974;13.936;2023-03-25T07:40:43;99046.22;;;10.96;100.00
28310;BME280;15571;50.974;13.936;2023-03-25T07:43:50;99048.66;;;11.03;100.00
28310;BME280;15571;50.974;13.936;2023-03-25T07:47:00;99051.94;;;11.12;100.00
28310;BME280;15571;50.974;13.936;2023-03-25T07:50:07;99064.78;;;11.21;100.00
28310;BME280;15571;50.974;13.936;2023-03-25T07:53:11;99063.81;;;11.25;100.00
28310;BME280;15571;50.974;13.936;2023-03-25T07:56:16;99053.16;;;11.31;100.00
28310;BME280;15571;50.974;13.936;2023-03-25T07:59:18;99059.84;;;11.42;100.00
28310;BME280;15571;50.974;13.936;2023-03-25T08:02:22;99069.31;;;11.47;100.00
28310;BME280;15571;50.974;13.936;2023-03-25T08:05:30;99076.28;;;11.48;100.00
28310;BME280;15571;50.974;13.936;2023-03-25T08:08:35;99083.13;;;11.52;100.00
28310;BME280;15571;50.974;13.936;2023-03-25T08:11:39;99084.78;;;11.57;100.00
28310;BME280;15571;50.974;13.936;2023-03-25T08:14:41;99089.16;;;11.56;100.00
28310;BME280;15571;50.974;13.936;2023-03-25T08:17:50;99080.38;;;11.57;100.00
28310;BME280;15571;50.974;13.936;2023-03-25T08:20:54;99090.91;;;11.56;100.00
28310;BME280;15571;50.974;13.936;2023-03-25T08:23:57;99090.88;;;11.57;100.00
28310;BME280;15571;50.974;13.936;2023-03-25T08:27:02;99085.56;;;11.60;100.00
28310;BME280;15571;50.974;13.936;2023-03-25T08:30:09;99098.53;;;11.65;100.00
28310;BME280;15571;50.974;13.936;2023-03-25T08:33:14;99095.84;;;11.66;100.00
28310;BME280;15571;50.974;13.936;2023-03-25T08:36:25;99090.59;;;11.66;100.00
28310;BME280;15571;50.974;13.936;2023-03-25T08:39:29;99102.75;;;11.71;100.00
28310;BME280;15571;50.974;13.936;2023-03-25T08:42:42;99107.91;;;11.74;100.00
28310;BME280;15571;50.974;13.936;2023-03-25T08:45:44;99106.06;;;11.76;100.00
28310;BME280;15571;50.974;13.936;2023-03-25T08:48:48;99117.44;;;11.76;100.00
28310;BME280;15571;50.974;13.936;2023-03-25T08:51:54;99129.72;;;11.74;100.00
28310;BME280;15571;50.974;13.936;2023-03-25T08:55:00;99132.47;;;11.70;100.00
28310;BME280;15571;50.974;13.936;2023-03-25T08:58:02;99140.47;;;11.65;100.00
28310;BME280;15571;50.974;13.936;2023-03-25T09:01:06;99137.13;;;11.60;100.00
28310;BME280;15571;50.974;13.936;2023-03-25T09:04:08;99150.25;;;11.58;100.00
28310;BME280;15571;50.974;13.936;2023-03-25T09:07:15;99143.38;;;11.54;100.00
28310;BME280;15571;50.974;13.936;2023-03-25T09:10:19;99142.75;;;11.46;100.00
28310;BME280;15571;50.974;13.936;2023-03-25T09:13:24;99150.59;;;11.46;100.00
28310;BME280;15571;50.974;13.936;2023-03-25T09:16:26;99152.41;;;11.42;100.00
28310;BME280;15571;50.974;13.936;2023-03-25T09:19:29;99156.81;;;11.42;100.00
28310;BME280;15571;50.974;13.936;2023-03-25T09:22:33;99149.78;;;11.42;100.00
28310;BME280;15571;50.974;13.936;2023-03-25T09:25:36;99157.72;;;11.41;100.00
28310;BME280;15571;50.974;13.936;2023-03-25T09:28:44;99164.66;;;11.42;100.00
28310;BME280;15571;50.974;13.936;2023-03-25T09:31:50;99169.13;;;11.38;100.00
28310;BME280;15571;50.974;13.936;2023-03-25T09:34:54;99177.84;;;11.39;100.00
28310;BME280;15571;50.974;13.936;2023-03-25T09:37:58;99185.88;;;11.32;100.00
28310;BME280;15571;50.974;13.936;2023-03-25T09:41:03;99189.44;;;11.28;100.00
28310;BME280;15571;50.974;13.936;2023-03-25T09:44:10;99182.50;;;11.27;100.00
28310;BME280;15571;50.974;13.936;2023-03-25T09:47:15;99174.84;;;11.19;100.00
28310;BME280;15571;50.974;13.936;2023-03-25T09:50:21;99173.97;;;11.19;100.00
28310;BME280;15571;50.974;13.936;2023-03-25T09:53:36;99167.88;;;11.18;100.00
28310;BME280;15571;50.974;13.936;2023-03-25T09:56:48;99168.78;;;11.17;100.00
28310;BME280;15571;50.974;13.936;2023-03-25T09:59:51;99156.53;;;11.18;100.00
28310;BME280;15571;50.974;13.936;2023-03-25T10:03:00;99152.16;;;11.18;100.00
28310;BME280;15571;50.974;13.936;2023-03-25T10:06:12;99154.72;;;11.20;100.00
28310;BME280;15571;50.974;13.936;2023-03-25T10:09:29;99156.38;;;11.24;100.00
28310;BME280;15571;50.974;13.936;2023-03-25T10:12:39;99156.28;;;11.27;100.00
28310;BME280;15571;50.974;13.936;2023-03-25T10:15:46;99156.16;;;11.33;100.00
28310;BME280;15571;50.974;13.936;2023-03-25T10:19:02;99150.75;;;11.40;100.00
28310;BME280;15571;50.974;13.936;2023-03-25T10:22:08;99145.38;;;11.44;100.00
28310;BME280;15571;50.974;13.936;2023-03-25T10:25:19;99139.16;;;11.48;100.00
28310;BME280;15571;50.974;13.936;2023-03-25T10:28:26;99137.38;;;11.50;100.00
28310;BME280;15571;50.974;13.936;2023-03-25T10:31:30;99131.19;;;11.51;100.00
28310;BME280;15571;50.974;13.936;2023-03-25T10:34:38;99125.03;;;11.54;100.00
28310;BME280;15571;50.974;13.936;2023-03-25T10:37:46;99124.28;;;11.49;100.00
28310;BME280;15571;50.974;13.936;2023-03-25T10:40:58;99112.84;;;11.53;100.00
28310;BME280;15571;50.974;13.936;2023-03-25T10:44:11;99106.53;;;11.60;100.00
28310;BME280;15571;50.974;13.936;2023-03-25T10:47:22;99112.50;;;11.65;100.00
28310;BME280;15571;50.974;13.936;2023-03-25T10:50:29;99105.44;;;11.67;100.00
28310;BME280;15571;50.974;13.936;2023-03-25T10:53:33;99089.56;;;11.74;100.00
28310;BME280;15571;50.974;13.936;2023-03-25T10:56:43;99085.91;;;11.79;100.00
28310;BME280;15571;50.974;13.936;2023-03-25T10:59:57;99079.34;;;11.94;100.00
28310;BME280;15571;50.974;13.936;2023-03-25T11:03:01;99082.56;;;12.04;100.00
28310;BME280;15571;50.974;13.936;2023-03-25T11:06:19;99066.69;;;12.09;100.00
28310;BME280;15571;50.974;13.936;2023-03-25T11:09:24;99070.00;;;12.16;100.00
28310;BME280;15571;50.974;13.936;2023-03-25T11:12:30;99062.06;;;12.17;100.00
28310;BME280;15571;50.974;13.936;2023-03-25T11:15:35;99066.34;;;12.21;100.00
28310;BME280;15571;50.974;13.936;2023-03-25T11:18:44;99055.75;;;12.24;100.00
28310;BME280;15571;50.974;13.936;2023-03-25T11:21:52;99058.25;;;12.29;100.00
28310;BME280;15571;50.974;13.936;2023-03-25T11:25:00;99062.22;;;12.41;100.00
28310;BME280;15571;50.974;13.936;2023-03-25T11:28:14;99063.53;;;12.54;100.00
28310;BME280;15571;50.974;13.936;2023-03-25T11:31:32;99051.06;;;12.63;100.00
28310;BME280;15571;50.974;13.936;2023-03-25T11:34:35;99050.94;;;12.66;100.00
28310;BME280;15571;50.974;13.936;2023-03-25T11:37:45;99040.41;;;12.66;100.00
28310;BME280;15571;50.974;13.936;2023-03-25T11:40:53;99046.41;;;12.71;100.00
28310;BME280;15571;50.974;13.936;2023-03-25T11:44:01;99026.22;;;12.73;100.00
28310;BME280;15571;50.974;13.936;2023-03-25T11:47:04;99023.44;;;12.77;100.00
28310;BME280;15571;50.974;13.936;2023-03-25T11:50:16;99051.13;;;12.86;100.00
28310;BME280;15571;50.974;13.936;2023-03-25T11:53:26;99040.78;;;12.82;100.00
28310;BME280;15571;50.974;13.936;2023-03-25T11:56:33;99040.69;;;12.85;100.00
28310;BME280;15571;50.974;13.936;2023-03-25T11:59:43;99068.00;;;12.79;100.00
28310;BME280;15571;50.974;13.936;2023-03-25T12:02:48;99045.34;;;12.76;100.00
28310;BME280;15571;50.974;13.936;2023-03-25T12:06:14;99041.38;;;12.63;100.00
28310;BME280;15571;50.974;13.936;2023-03-25T12:09:24;99025.19;;;12.50;100.00
28310;BME280;15571;50.974;13.936;2023-03-25T12:12:29;99027.22;;;12.42;100.00
28310;BME280;15571;50.974;13.936;2023-03-25T12:15:45;99022.81;;;12.42;100.00
28310;BME280;15571;50.974;13.936;2023-03-25T12:18:58;99009.75;;;12.41;100.00
28310;BME280;15571;50.974;13.936;2023-03-25T12:22:17;99001.88;;;12.41;100.00
28310;BME280;15571;50.974;13.936;2023-03-25T12:25:27;99003.38;;;12.48;100.00
28310;BME280;15571;50.974;13.936;2023-03-25T12:28:43;98989.94;;;12.57;100.00
28310;BME280;15571;50.974;13.936;2023-03-25T12:31:56;98987.91;;;12.66;100.00
28310;BME280;15571;50.974;13.936;2023-03-25T12:35:07;98991.03;;;12.77;100.00
28310;BME280;15571;50.974;13.936;2023-03-25T12:38:26;98983.06;;;12.80;100.00
28310;BME280;15571;50.974;13.936;2023-03-25T12:41:30;98991.53;;;12.88;100.00
28310;BME280;15571;50.974;13.936;2023-03-25T12:44:49;98991.44;;;12.91;100.00
28310;BME280;15571;50.974;13.936;2023-03-25T12:51:24;98968.16;;;13.06;100.00
28310;BME280;15571;50.974;13.936;2023-03-25T12:54:39;98973.06;;;13.15;100.00
28310;BME280;15571;50.974;13.936;2023-03-25T12:57:51;98964.75;;;13.28;100.00
28310;BME280;15571;50.974;13.936;2023-03-25T13:00:58;98952.16;;;13.36;100.00
28310;BME280;15571;50.974;13.936;2023-03-25T13:04:12;98951.84;;;13.45;100.00
28310;BME280;15571;50.974;13.936;2023-03-25T13:07:25;98971.72;;;13.52;100.00
28310;BME280;15571;50.974;13.936;2023-03-25T13:10:32;98973.97;;;13.39;100.00
28310;BME280;15571;50.974;13.936;2023-03-25T13:13:40;98984.28;;;13.20;100.00
28310;BME280;15571;50.974;13.936;2023-03-25T13:16:46;98975.94;;;13.09;100.00
28310;BME280;15571;50.974;13.936;2023-03-25T13:19:53;98979.47;;;13.08;100.00
28310;BME280;15571;50.974;13.936;2023-03-25T13:23:00;98982.16;;;13.06;100.00
28310;BME280;15571;50.974;13.936;2023-03-25T13:26:06;98983.75;;;13.11;100.00
28310;BME280;15571;50.974;13.936;2023-03-25T13:36:35;98958.75;;;13.24;100.00
28310;BME280;15571;50.974;13.936;2023-03-25T13:39:56;98945.50;;;13.27;100.00
28310;BME280;15571;50.974;13.936;2023-03-25T13:43:11;98941.75;;;13.33;100.00
28310;BME280;15571;50.974;13.936;2023-03-25T13:46:24;98943.44;;;13.35;100.00
28310;BME280;15571;50.974;13.936;2023-03-25T13:49:31;98937.31;;;13.35;100.00
28310;BME280;15571;50.974;13.936;2023-03-25T13:52:46;98931.06;;;13.39;100.00
28310;BME280;15571;50.974;13.936;2023-03-25T13:55:56;98923.84;;;13.44;100.00
28310;BME280;15571;50.974;13.936;2023-03-25T13:59:11;98926.38;;;13.47;100.00
28310;BME280;15571;50.974;13.936;2023-03-25T14:02:24;98947.31;;;13.50;100.00
28310;BME280;15571;50.974;13.936;2023-03-25T14:05:45;98949.78;;;13.53;100.00
28310;BME280;15571;50.974;13.936;2023-03-25T14:12:18;98948.59;;;13.62;100.00
28310;BME280;15571;50.974;13.936;2023-03-25T14:15:24;98959.13;;;13.62;100.00
28310;BME280;15571;50.974;13.936;2023-03-25T14:18:30;98952.88;;;13.65;100.00
28310;BME280;15571;50.974;13.936;2023-03-25T14:21:33;98958.03;;;13.68;100.00
28310;BME280;15571;50.974;13.936;2023-03-25T14:24:44;98949.03;;;13.74;100.00
28310;BME280;15571;50.974;13.936;2023-03-25T14:27:51;98949.03;;;13.74;100.00
28310;BME280;15571;50.974;13.936;2023-03-25T14:31:08;98941.16;;;13.74;100.00
28310;BME280;15571;50.974;13.936;2023-03-25T14:38:52;98924.13;;;13.82;100.00
28310;BME280;15571;50.974;13.936;2023-03-25T14:41:57;98920.38;;;13.90;100.00
28310;BME280;15571;50.974;13.936;2023-03-25T14:48:53;98923.91;;;13.89;94.27
28310;BME280;15571;50.974;13.936;2023-03-25T14:52:28;98938.81;;;13.88;94.81
28310;BME280;15571;50.974;13.936;2023-03-25T14:55:40;98968.28;;;13.74;93.41
28310;BME280;15571;50.974;13.936;2023-03-25T14:58:42;99048.75;;;13.56;98.46
28310;BME280;15571;50.974;13.936;2023-03-25T15:01:58;99033.00;;;13.29;98.26
28310;BME280;15571;50.974;13.936;2023-03-25T15:05:12;99025.13;;;13.04;100.00
28310;BME280;15571;50.974;13.936;2023-03-25T15:08:20;99022.22;;;12.86;100.00
28310;BME280;15571;50.974;13.936;2023-03-25T15:11:31;99032.09;;;12.80;100.00
28310;BME280;15571;50.974;13.936;2023-03-25T15:14:37;99034.50;;;12.59;100.00
28310;BME280;15571;50.974;13.936;2023-03-25T15:17:43;99022.81;;;12.42;100.00
28310;BME280;15571;50.974;13.936;2023-03-25T15:20:49;99011.84;;;12.29;100.00
28310;BME280;15571;50.974;13.936;2023-03-25T15:23:53;98994.78;;;12.16;100.00
28310;BME280;15571;50.974;13.936;2023-03-25T15:26:59;98981.81;;;12.11;100.00
28310;BME280;15571;50.974;13.936;2023-03-25T15:30:18;98968.66;;;12.13;100.00
28310;BME280;15571;50.974;13.936;2023-03-25T15:33:48;98963.50;;;12.10;100.00
28310;BME280;15571;50.974;13.936;2023-03-25T15:40:42;98982.56;;;12.15;100.00
28310;BME280;15571;50.974;13.936;2023-03-25T15:43:57;98982.41;;;12.20;100.00
28310;BME280;15571;50.974;13.936;2023-03-25T15:47:11;98993.72;;;12.22;100.00
28310;BME280;15571;50.974;13.936;2023-03-25T15:54:00;99000.44;;;12.02;100.00
28310;BME280;15571;50.974;13.936;2023-03-25T17:46:32;99046.75;;;11.42;100.00
28310;BME280;15571;50.974;13.936;2023-03-25T17:49:36;99057.38;;;11.37;100.00
28310;BME280;15571;50.974;13.936;2023-03-25T17:52:41;99054.88;;;11.32;100.00
28310;BME280;15571;50.974;13.936;2023-03-25T17:55:51;99059.38;;;11.27;100.00
28310;BME280;15571;50.974;13.936;2023-03-25T17:58:55;99059.47;;;11.24;100.00
28310;BME280;15571;50.974;13.936;2023-03-25T18:02:12;99054.34;;;11.19;100.00
28310;BME280;15571;50.974;13.936;2023-03-25T18:05:32;99058.81;;;11.16;100.00
28310;BME280;15571;50.974;13.936;2023-03-25T18:20:04;99054.75;;;11.04;100.00
28310;BME280;15571;50.974;13.936;2023-03-25T18:23:13;99055.75;;;11.00;100.00
28310;BME280;15571;50.974;13.936;2023-03-25T18:26:23;99063.66;;;10.97;100.00
28310;BME280;15571;50.974;13.936;2023-03-25T18:29:32;99074.19;;;10.94;100.00
28310;BME280;15571;50.974;13.936;2023-03-25T18:32:37;99083.91;;;10.90;100.00
28310;BME280;15571;50.974;13.936;2023-03-25T18:35:44;99077.88;;;10.86;100.00
28310;BME280;15571;50.974;13.936;2023-03-25T18:38:55;99090.25;;;10.81;100.00
28310;BME280;15571;50.974;13.936;2023-03-25T18:42:02;99092.88;;;10.80;100.00